Norway, SC (29113)

8:00 AM EDT on September 05, 2015 (GMT -0400)
Morgantown | | Change Station
CLOSE
Current Station
Personal Weather Station
Location: Springfield, SC
Elevation: 243 ft
Nearby Weather Stations

Elev 243 ft 33.48 °N, 81.24 °W | Updated 4 seconds ago

Clear
Clear
69.1 °F
Feels Like 69.1 °F
N
0.0
Wind Variable Wind from North
Gusts 0.0 mph

Today
High -- | Low -- °F
--% Chance of Precip.
Yesterday
High -- | Low -- °F
Precip. -- in
7:01 AM 7:44 PM
Waning Gibbous, 49% visible
Pressure 30.07 in
Visibility 7.0 miles
Clouds Clear
Dew Point 65 °F
Humidity 88%
Rainfall 0.05 in
Snow Depth Not available.
UV 0.0 out of 12
Pollen 8.60 out of 12
Air Quality Not available.
Flu Activity Not available.
METAR KOGB 051153Z AUTO 04006KT 7SM CLR 22/20 A3008 RMK AO2 SLP182 60001 70002 T02220200 10239 20211 53016
Pressure 30.07 in
Visibility 7.0 miles
Clouds Clear
Dew Point 65 °F
Humidity 88%
Rainfall 0.05 in
Snow Depth Not available.
UV 0.0 out of 12
Pollen 8.60 out of 12
Air Quality Not available.
Flu Activity Not available.
METAR KOGB 051153Z AUTO 04006KT 7SM CLR 22/20 A3008 RMK AO2 SLP182 60001 70002 T02220200 10239 20211 53016

10-Day Weather Forecast

×

Almanac

Astronomy

Sep. 05, 2015 Rise Set
Actual Time
Civil Twilight
Nautical Twilight
Astronomical Twilight
Moon
Length of Visible Light
Length of Day
Tomorrow will be .
, % of the Moon is Illuminated

Today's Extremes

State Highs State Lows

Community

WunderPhotos

Upload Photos

1,852,453 photos uploaded!

WunderBlogs® & News

Nearby

Air Quality

  Air Quality AQ Index Pollutant
Not available.

Snow Depth

Station Depth Elevation

Earthquake Activity

City Distance Mag. Time & Date
Minimum magnitude displayed is 2.5.

Coastal Water Temperatures

Place Temperature

Stations

Nearby Weather Stations

Station Location Temp. Windchill Dew Point Humidity Wind Precip. Elev Updated Type